Time;durP1;ratioP1;P1;durP2;ratioP2;P2;SDS_P1;SDS_P2;PMS_P1;PMS_P2;Temp;Humidity;BMP_temperature;BMP_pressure;BME280_temperature;BME280_humidity;BME280_pressure;Samples;Min_cycle;Max_cycle;Signal;HPM_P1;HPM_P2
2023/06/17 00:01:08;;;;;;;1.00;0.80;;;;;;;;;;10375117;28;20108;-76
2023/06/17 00:06:08;;;;;;;1.27;0.60;;;;;;;;;;10375188;28;20013;-76
2023/06/17 00:11:09;;;;;;;2.13;0.80;;;;;;;;;;10375214;28;20037;-75
2023/06/17 00:16:12;;;;;;;0.95;0.95;;;;;;;;;;10375236;28;20442;-76
2023/06/17 00:21:12;;;;;;;3.08;0.98;;;;;;;;;;10381619;28;20017;-76
2023/06/17 00:26:13;;;;;;;3.03;0.93;;;;;;;;;;10381941;28;20021;-75
2023/06/17 00:31:13;;;;;;;3.72;0.90;;;;;;;;;;10381930;28;20022;-75
2023/06/17 00:36:13;;;;;;;0.95;0.80;;;;;;;;;;10379966;28;20046;-75
2023/06/17 00:41:13;;;;;;;6.53;1.40;;;;;;;;;;10381575;28;20052;-75
2023/06/17 00:46:17;;;;;;;4.38;1.27;;;;;;;;;;10381580;28;20037;-76
2023/06/17 00:51:17;;;;;;;3.55;1.08;;;;;;;;;;10380942;28;20038;-76
2023/06/17 00:56:18;;;;;;;2.63;1.53;;;;;;;;;;10381174;28;20204;-75
2023/06/17 01:01:19;;;;;;;3.85;1.52;;;;;;;;;;10370238;28;20018;-76
2023/06/17 01:06:37;;;;;;;6.28;1.52;;;;;;;;;;10366336;28;20045;-76
2023/06/17 01:11:39;;;;;;;1.77;1.40;;;;;;;;;;10380643;28;20033;-77
2023/06/17 01:16:42;;;;;;;3.15;1.75;;;;;;;;;;10380822;28;20025;-77
2023/06/17 01:21:43;;;;;;;2.50;1.80;;;;;;;;;;10366549;28;20026;-78
2023/06/17 01:26:44;;;;;;;3.15;2.17;;;;;;;;;;10369765;28;20298;-77
2023/06/17 01:31:49;;;;;;;2.63;1.98;;;;;;;;;;10378044;28;20048;-78
2023/06/17 01:36:50;;;;;;;2.10;1.92;;;;;;;;;;10379271;28;20056;-77
2023/06/17 01:41:52;;;;;;;4.40;2.30;;;;;;;;;;10378987;28;20022;-77
2023/06/17 01:46:53;;;;;;;2.97;2.53;;;;;;;;;;10378721;28;20025;-77
2023/06/17 01:51:53;;;;;;;3.30;2.45;;;;;;;;;;10379199;28;20029;-77
2023/06/17 01:56:53;;;;;;;3.40;2.60;;;;;;;;;;10378762;28;20037;-77
2023/06/17 02:01:54;;;;;;;3.55;2.70;;;;;;;;;;10378434;28;20065;-75
2023/06/17 02:06:54;;;;;;;4.40;2.73;;;;;;;;;;10378623;28;20021;-77
2023/06/17 02:11:55;;;;;;;3.75;2.30;;;;;;;;;;10378137;28;20029;-77
2023/06/17 02:16:55;;;;;;;3.47;2.58;;;;;;;;;;10377903;28;20075;-77
2023/06/17 02:21:56;;;;;;;4.45;2.95;;;;;;;;;;10377898;28;20308;-77
2023/06/17 02:26:56;;;;;;;4.32;2.97;;;;;;;;;;10376336;28;20022;-78
2023/06/17 02:31:56;;;;;;;4.40;2.73;;;;;;;;;;10377577;28;20029;-77
2023/06/17 02:36:57;;;;;;;6.63;3.20;;;;;;;;;;10377020;28;20289;-77
2023/06/17 02:41:57;;;;;;;7.10;3.30;;;;;;;;;;10376908;28;20033;-77
2023/06/17 02:46:57;;;;;;;6.32;3.33;;;;;;;;;;10374830;28;20082;-76
2023/06/17 02:51:58;;;;;;;4.50;2.73;;;;;;;;;;10375484;28;20410;-76
2023/06/17 02:56:58;;;;;;;6.88;3.13;;;;;;;;;;10376894;28;20081;-76
2023/06/17 03:01:58;;;;;;;5.28;3.00;;;;;;;;;;10372549;28;20238;-77
2023/06/17 03:06:59;;;;;;;5.30;2.83;;;;;;;;;;10372761;28;20040;-76
2023/06/17 03:11:59;;;;;;;5.13;2.97;;;;;;;;;;10373123;28;20026;-75
2023/06/17 03:17:00;;;;;;;4.05;3.05;;;;;;;;;;10374441;28;20053;-74
2023/06/17 03:22:01;;;;;;;4.82;3.13;;;;;;;;;;10373357;28;20032;-75
2023/06/17 03:27:01;;;;;;;4.63;3.15;;;;;;;;;;10372603;28;20014;-75
2023/06/17 03:32:02;;;;;;;4.57;3.40;;;;;;;;;;10372159;28;20304;-75
2023/06/17 03:37:02;;;;;;;5.20;3.10;;;;;;;;;;10374826;28;20323;-76
2023/06/17 03:42:03;;;;;;;5.53;3.28;;;;;;;;;;10375546;28;20093;-75
2023/06/17 03:47:03;;;;;;;6.60;3.10;;;;;;;;;;10375494;28;20219;-77
2023/06/17 03:52:04;;;;;;;5.13;3.20;;;;;;;;;;10375368;28;20307;-75
2023/06/17 03:57:05;;;;;;;6.45;3.05;;;;;;;;;;10380279;28;20076;-75
2023/06/17 04:02:05;;;;;;;6.45;3.47;;;;;;;;;;10383152;28;20076;-75
2023/06/17 04:07:05;;;;;;;4.75;3.55;;;;;;;;;;10382493;28;20018;-74
2023/06/17 04:12:07;;;;;;;4.35;3.13;;;;;;;;;;10382772;28;20025;-75
2023/06/17 04:17:07;;;;;;;4.65;3.83;;;;;;;;;;10382227;28;20169;-75
2023/06/17 04:22:07;;;;;;;5.70;3.83;;;;;;;;;;10382234;28;20031;-76
2023/06/17 04:27:08;;;;;;;6.07;3.75;;;;;;;;;;10382168;28;20022;-74
2023/06/17 04:32:10;;;;;;;9.13;3.40;;;;;;;;;;10381667;28;20029;-76
2023/06/17 04:37:12;;;;;;;9.32;3.63;;;;;;;;;;10381749;28;20034;-76
2023/06/17 04:42:14;;;;;;;6.10;3.67;;;;;;;;;;10380626;28;20033;-77
2023/06/17 04:47:19;;;;;;;3.85;2.97;;;;;;;;;;10363233;28;20232;-76
2023/06/17 04:52:20;;;;;;;8.02;3.00;;;;;;;;;;10372672;28;20033;-76
2023/06/17 04:57:20;;;;;;;5.47;2.92;;;;;;;;;;10376769;28;20046;-77
2023/06/17 05:02:20;;;;;;;5.22;3.58;;;;;;;;;;10373907;28;20021;-77
2023/06/17 05:07:21;;;;;;;2.72;2.40;;;;;;;;;;10374283;28;20188;-78
2023/06/17 05:12:21;;;;;;;2.78;2.38;;;;;;;;;;10378097;28;20092;-79
2023/06/17 05:17:21;;;;;;;4.13;2.33;;;;;;;;;;10363060;28;20040;-78
2023/06/17 05:22:22;;;;;;;3.67;2.30;;;;;;;;;;10374119;28;20029;-75
2023/06/17 05:27:22;;;;;;;4.07;2.13;;;;;;;;;;10368688;28;20033;-77
2023/06/17 05:32:22;;;;;;;3.78;2.53;;;;;;;;;;10373811;28;20029;-74
2023/06/17 05:37:23;;;;;;;3.85;2.28;;;;;;;;;;10370634;28;20084;-75
2023/06/17 05:42:23;;;;;;;4.07;1.85;;;;;;;;;;10369657;28;20588;-74
2023/06/17 05:47:23;;;;;;;2.80;1.92;;;;;;;;;;10365744;28;20060;-75
2023/06/17 05:52:24;;;;;;;5.95;2.33;;;;;;;;;;10366757;28;20041;-75
2023/06/17 05:57:24;;;;;;;4.07;1.63;;;;;;;;;;10367730;28;20235;-75
2023/06/17 06:02:24;;;;;;;2.88;1.48;;;;;;;;;;10368718;28;20030;-75
2023/06/17 06:07:25;;;;;;;6.83;1.70;;;;;;;;;;10370016;28;20018;-75
2023/06/17 06:12:25;;;;;;;5.32;2.65;;;;;;;;;;10369567;28;20357;-75
2023/06/17 06:17:26;;;;;;;3.55;2.22;;;;;;;;;;10369615;28;20064;-75
2023/06/17 06:22:26;;;;;;;5.20;2.13;;;;;;;;;;10371459;28;20044;-73
2023/06/17 06:27:26;;;;;;;5.90;3.20;;;;;;;;;;10367234;28;20022;-77
2023/06/17 06:32:26;;;;;;;5.07;2.60;;;;;;;;;;10370673;28;20041;-75
2023/06/17 06:37:27;;;;;;;3.58;2.70;;;;;;;;;;10370991;28;20053;-75
2023/06/17 06:42:27;;;;;;;4.50;2.60;;;;;;;;;;10371231;28;20077;-76
2023/06/17 06:47:27;;;;;;;4.25;2.53;;;;;;;;;;10368413;28;20021;-76
2023/06/17 06:52:28;;;;;;;10.25;2.20;;;;;;;;;;10370398;28;20014;-72
2023/06/17 06:57:28;;;;;;;2.30;2.00;;;;;;;;;;10362949;28;20203;-76
2023/06/17 07:02:28;;;;;;;2.55;2.22;;;;;;;;;;10369896;28;20014;-76
2023/06/17 07:07:28;;;;;;;4.47;1.75;;;;;;;;;;10369040;28;20255;-76
2023/06/17 07:12:29;;;;;;;5.35;2.75;;;;;;;;;;10368862;28;20668;-75
2023/06/17 07:17:29;;;;;;;2.53;1.90;;;;;;;;;;10370382;28;20018;-78
2023/06/17 07:22:29;;;;;;;5.43;2.25;;;;;;;;;;10371793;28;20236;-79
2023/06/17 07:27:29;;;;;;;6.93;2.70;;;;;;;;;;10372397;28;20308;-79
2023/06/17 07:32:30;;;;;;;1.98;1.77;;;;;;;;;;10376565;28;20069;-78
2023/06/17 07:37:30;;;;;;;5.37;2.37;;;;;;;;;;10378332;28;20053;-80
2023/06/17 07:42:30;;;;;;;5.95;2.22;;;;;;;;;;10379987;28;20315;-78
2023/06/17 07:47:31;;;;;;;4.00;2.40;;;;;;;;;;10375230;28;20361;-77
2023/06/17 07:52:34;;;;;;;17.95;9.73;;;;;;;;;;10376711;28;20369;-75
2023/06/17 07:57:35;;;;;;;5.43;2.78;;;;;;;;;;10376197;28;20021;-77
2023/06/17 08:02:35;;;;;;;3.75;2.20;;;;;;;;;;10377840;28;20022;-76
2023/06/17 08:07:36;;;;;;;3.50;2.53;;;;;;;;;;10377029;28;20022;-74
2023/06/17 08:12:36;;;;;;;4.90;1.48;;;;;;;;;;10375131;28;20029;-76
2023/06/17 08:17:36;;;;;;;7.00;2.77;;;;;;;;;;10375548;28;20240;-74
2023/06/17 08:22:37;;;;;;;4.03;1.75;;;;;;;;;;10375156;28;20073;-71
2023/06/17 08:27:42;;;;;;;2.47;1.90;;;;;;;;;;10375647;28;20018;-73
2023/06/17 08:32:42;;;;;;;2.35;2.13;;;;;;;;;;10372561;28;20203;-74
2023/06/17 08:37:43;;;;;;;3.40;2.53;;;;;;;;;;10375444;28;20038;-73
2023/06/17 08:42:43;;;;;;;6.75;2.92;;;;;;;;;;10374719;28;20205;-74
2023/06/17 08:47:43;;;;;;;5.73;2.83;;;;;;;;;;10374111;28;20068;-74
2023/06/17 08:52:44;;;;;;;7.93;3.85;;;;;;;;;;10373598;28;20032;-74
2023/06/17 08:57:47;;;;;;;3.70;3.00;;;;;;;;;;10374169;28;20032;-74
2023/06/17 09:02:48;;;;;;;4.75;2.10;;;;;;;;;;10371921;28;20105;-73
2023/06/17 09:07:48;;;;;;;2.88;2.03;;;;;;;;;;10373650;28;20029;-73
2023/06/17 09:12:48;;;;;;;3.33;2.17;;;;;;;;;;10372875;28;20219;-74
2023/06/17 09:17:50;;;;;;;5.90;2.22;;;;;;;;;;10374894;28;20030;-73
2023/06/17 09:22:50;;;;;;;4.70;2.30;;;;;;;;;;10372755;28;20040;-74
2023/06/17 09:27:51;;;;;;;4.07;2.63;;;;;;;;;;10371916;28;20351;-74
2023/06/17 09:32:52;;;;;;;4.65;2.22;;;;;;;;;;10372293;28;20332;-73
2023/06/17 09:37:53;;;;;;;5.60;2.15;;;;;;;;;;10371847;28;20037;-73
2023/06/17 09:42:53;;;;;;;2.30;2.08;;;;;;;;;;10372733;28;20037;-74
2023/06/17 09:47:54;;;;;;;4.82;2.22;;;;;;;;;;10371054;28;20316;-74
2023/06/17 09:52:55;;;;;;;3.83;2.53;;;;;;;;;;10370456;28;20358;-75
2023/06/17 09:57:56;;;;;;;8.50;2.53;;;;;;;;;;10371963;28;20268;-75
2023/06/17 10:02:56;;;;;;;2.60;1.80;;;;;;;;;;10368082;28;20025;-74
2023/06/17 10:07:56;;;;;;;2.30;2.10;;;;;;;;;;10369963;28;20312;-75
2023/06/17 10:13:00;;;;;;;2.50;2.17;;;;;;;;;;10371039;28;20049;-73
2023/06/17 10:18:01;;;;;;;4.93;2.30;;;;;;;;;;10367816;28;20374;-74
2023/06/17 10:23:02;;;;;;;3.30;1.58;;;;;;;;;;10368941;28;20080;-73
2023/06/17 10:28:03;;;;;;;1.85;1.42;;;;;;;;;;10370161;28;20037;-73
2023/06/17 10:33:03;;;;;;;2.10;1.25;;;;;;;;;;10369482;28;20038;-75
2023/06/17 10:38:04;;;;;;;3.00;1.63;;;;;;;;;;10368303;28;20153;-74
2023/06/17 10:43:04;;;;;;;1.45;1.15;;;;;;;;;;10350950;28;20030;-74
2023/06/17 10:48:20;;;;;;;4.37;1.17;;;;;;;;;;10368261;28;20033;-75
2023/06/17 10:53:28;;;;;;;3.33;1.60;;;;;;;;;;10365509;28;20450;-75
2023/06/17 10:58:29;;;;;;;;;;;;;;;;;;10369518;28;20029;-75
2023/06/17 11:03:29;;;;;;;2.55;1.77;;;;;;;;;;10371711;28;20281;-75
2023/06/17 11:08:31;;;;;;;3.08;2.40;;;;;;;;;;10371681;28;20010;-75
2023/06/17 11:13:31;;;;;;;4.70;2.95;;;;;;;;;;10371865;28;20029;-75
2023/06/17 11:18:34;;;;;;;5.22;3.15;;;;;;;;;;10372015;28;20064;-75
2023/06/17 11:23:36;;;;;;;5.10;2.50;;;;;;;;;;10371138;28;20025;-75
2023/06/17 11:28:36;;;;;;;3.95;2.80;;;;;;;;;;10370065;28;20236;-74
2023/06/17 11:33:37;;;;;;;6.57;3.55;;;;;;;;;;10371652;28;20042;-75
2023/06/17 11:38:37;;;;;;;5.20;4.03;;;;;;;;;;10371362;28;20025;-75
2023/06/17 11:43:38;;;;;;;5.28;3.22;;;;;;;;;;10371195;28;20018;-74
2023/06/17 11:48:38;;;;;;;8.80;4.37;;;;;;;;;;10370183;28;20017;-74
2023/06/17 11:53:38;;;;;;;10.07;4.40;;;;;;;;;;10370663;28;20048;-74
2023/06/17 11:58:39;;;;;;;6.23;3.80;;;;;;;;;;10371171;28;20212;-74
2023/06/17 12:03:44;;;;;;;4.47;2.88;;;;;;;;;;10370817;28;20009;-74
2023/06/17 12:08:44;;;;;;;6.90;3.80;;;;;;;;;;10370848;28;20010;-73
2023/06/17 12:13:47;;;;;;;5.40;4.35;;;;;;;;;;10370540;28;20061;-73
2023/06/17 12:18:48;;;;;;;5.35;3.60;;;;;;;;;;10374973;28;20363;-73
2023/06/17 12:23:50;;;;;;;7.35;4.43;;;;;;;;;;10376030;28;20029;-73
2023/06/17 12:28:54;;;;;;;6.70;4.13;;;;;;;;;;10360178;28;20103;-75
2023/06/17 12:33:54;;;;;;;5.13;3.15;;;;;;;;;;10377677;28;20276;-73
2023/06/17 12:38:55;;;;;;;6.63;3.70;;;;;;;;;;10376963;28;20014;-73
2023/06/17 12:43:55;;;;;;;11.07;3.30;;;;;;;;;;10376641;28;20307;-73
2023/06/17 12:48:56;;;;;;;5.90;3.78;;;;;;;;;;10377062;28;20013;-73
2023/06/17 12:53:56;;;;;;;6.60;3.83;;;;;;;;;;10376443;28;20268;-73
2023/06/17 12:58:56;;;;;;;7.83;4.20;;;;;;;;;;10376327;28;20256;-73
2023/06/17 13:03:57;;;;;;;5.47;2.90;;;;;;;;;;10376496;28;20069;-73
2023/06/17 13:08:57;;;;;;;3.97;2.33;;;;;;;;;;10376150;28;20184;-73
2023/06/17 13:13:58;;;;;;;4.13;2.70;;;;;;;;;;10375846;28;20017;-73
2023/06/17 13:18:58;;;;;;;4.38;2.75;;;;;;;;;;10375553;28;20260;-73
2023/06/17 13:23:58;;;;;;;4.20;2.83;;;;;;;;;;10375651;28;20296;-73
2023/06/17 13:29:01;;;;;;;5.77;3.13;;;;;;;;;;10374164;28;20052;-74
2023/06/17 13:34:02;;;;;;;4.22;3.15;;;;;;;;;;10374836;28;20319;-73
2023/06/17 13:39:02;;;;;;;7.05;2.63;;;;;;;;;;10375021;28;20044;-73
2023/06/17 13:44:03;;;;;;;12.52;3.00;;;;;;;;;;10374516;28;20018;-73
2023/06/17 13:49:04;;;;;;;6.50;3.45;;;;;;;;;;10356718;28;20208;-73
2023/06/17 13:54:04;;;;;;;5.60;3.65;;;;;;;;;;10357003;28;20010;-73
2023/06/17 13:59:04;;;;;;;5.45;3.65;;;;;;;;;;10373806;28;20052;-73
2023/06/17 14:04:04;;;;;;;5.60;4.10;;;;;;;;;;10373610;28;20351;-73
2023/06/17 14:09:05;;;;;;;6.45;3.20;;;;;;;;;;10373918;28;20088;-73
2023/06/17 14:14:08;;;;;;;4.68;3.10;;;;;;;;;;10373538;28;20438;-73
2023/06/17 14:19:08;;;;;;;4.13;2.53;;;;;;;;;;10354415;28;20117;-73
2023/06/17 14:24:09;;;;;;;5.75;2.30;;;;;;;;;;10368587;28;20021;-73
2023/06/17 14:29:10;;;;;;;3.65;2.40;;;;;;;;;;10372483;28;20390;-72
2023/06/17 14:34:10;;;;;;;4.00;2.67;;;;;;;;;;10368661;28;20121;-74
2023/06/17 14:39:11;;;;;;;3.50;2.10;;;;;;;;;;10370783;28;20041;-74
2023/06/17 14:44:11;;;;;;;5.53;2.25;;;;;;;;;;10370655;28;20030;-75
2023/06/17 14:49:11;;;;;;;4.87;2.23;;;;;;;;;;10368987;28;20033;-74
2023/06/17 14:54:12;;;;;;;4.13;3.08;;;;;;;;;;10370320;28;20220;-76
2023/06/17 14:59:12;;;;;;;4.20;3.35;;;;;;;;;;10369938;28;20029;-74
2023/06/17 15:04:13;;;;;;;3.93;2.83;;;;;;;;;;10366102;28;20247;-73
2023/06/17 15:09:24;;;;;;;5.57;3.55;;;;;;;;;;10370237;28;20055;-76
2023/06/17 15:14:26;;;;;;;4.35;3.28;;;;;;;;;;10374952;28;20379;-76
2023/06/17 15:19:26;;;;;;;6.32;4.03;;;;;;;;;;10367769;28;20041;-76
2023/06/17 15:24:26;;;;;;;11.02;4.22;;;;;;;;;;10367592;28;20018;-76
2023/06/17 15:29:26;;;;;;;6.50;4.15;;;;;;;;;;10369419;28;20232;-76
2023/06/17 15:34:27;;;;;;;7.47;5.03;;;;;;;;;;10368066;28;20096;-76
2023/06/17 15:39:28;;;;;;;6.95;4.07;;;;;;;;;;10349472;28;20563;-74
2023/06/17 15:44:28;;;;;;;6.82;4.50;;;;;;;;;;10382646;28;20221;-73
2023/06/17 15:49:28;;;;;;;8.30;5.28;;;;;;;;;;10368485;28;20025;-75
2023/06/17 15:54:28;;;;;;;10.27;4.60;;;;;;;;;;10376167;28;20307;-75
2023/06/17 15:59:30;;;;;;;14.68;5.70;;;;;;;;;;10377779;28;20045;-77
2023/06/17 16:04:36;;;;;;;10.57;5.95;;;;;;;;;;10376354;28;20056;-74
2023/06/17 16:09:37;;;;;;;8.10;5.43;;;;;;;;;;10374671;28;20045;-70
2023/06/17 16:14:37;;;;;;;8.40;5.40;;;;;;;;;;10376085;28;20212;-70
2023/06/17 16:19:38;;;;;;;7.82;6.13;;;;;;;;;;10374964;28;20025;-70
2023/06/17 16:24:41;;;;;;;11.38;6.47;;;;;;;;;;10355103;28;20342;-70
2023/06/17 16:29:41;;;;;;;9.13;6.85;;;;;;;;;;10373977;28;20029;-71
2023/06/17 16:34:42;;;;;;;13.30;8.48;;;;;;;;;;10375289;28;20049;-70
2023/06/17 16:39:42;;;;;;;12.67;8.10;;;;;;;;;;10374336;28;20243;-67
2023/06/17 16:44:42;;;;;;;13.20;8.57;;;;;;;;;;10375891;28;20602;-70
2023/06/17 16:49:42;;;;;;;14.43;9.10;;;;;;;;;;10373639;28;20022;-68
2023/06/17 16:54:45;;;;;;;16.80;9.52;;;;;;;;;;10374695;28;20017;-70
2023/06/17 16:59:45;;;;;;;15.50;9.00;;;;;;;;;;10375811;28;20025;-70
2023/06/17 17:04:46;;;;;;;16.10;10.45;;;;;;;;;;10371241;28;20337;-70
2023/06/17 17:09:46;;;;;;;15.85;10.50;;;;;;;;;;10372561;28;20045;-70
2023/06/17 17:14:46;;;;;;;14.83;10.43;;;;;;;;;;10372966;28;20193;-70
2023/06/17 17:19:47;;;;;;;19.35;11.65;;;;;;;;;;10370943;28;20315;-68
2023/06/17 17:24:47;;;;;;;21.73;11.50;;;;;;;;;;10371535;28;20025;-70
2023/06/17 17:29:47;;;;;;;17.40;11.93;;;;;;;;;;10351543;28;20018;-68
2023/06/17 17:34:48;;;;;;;23.42;11.38;;;;;;;;;;10371515;28;20566;-69
2023/06/17 17:39:49;;;;;;;16.80;11.32;;;;;;;;;;10371832;28;20033;-68
2023/06/17 17:44:49;;;;;;;18.30;11.48;;;;;;;;;;10371892;28;20374;-68
2023/06/17 17:49:50;;;;;;;17.60;11.67;;;;;;;;;;10371379;28;20111;-68
2023/06/17 17:54:54;;;;;;;20.13;11.38;;;;;;;;;;10370217;28;20273;-68
2023/06/17 17:59:54;;;;;;;19.40;11.77;;;;;;;;;;10353245;28;20088;-68
2023/06/17 18:04:54;;;;;;;22.23;11.97;;;;;;;;;;10369386;28;20034;-69
2023/06/17 18:09:55;;;;;;;17.95;12.18;;;;;;;;;;10367699;28;20013;-69
2023/06/17 18:14:55;;;;;;;21.50;12.73;;;;;;;;;;10370544;28;20014;-70
2023/06/17 18:19:56;;;;;;;22.70;14.10;;;;;;;;;;10367955;28;20075;-70
2023/06/17 18:24:56;;;;;;;22.13;13.85;;;;;;;;;;10368730;28;20032;-69
2023/06/17 18:29:56;;;;;;;26.50;14.55;;;;;;;;;;10371468;28;20108;-76
2023/06/17 18:34:56;;;;;;;21.77;14.57;;;;;;;;;;10369623;28;20204;-75
2023/06/17 18:39:57;;;;;;;22.40;13.73;;;;;;;;;;10351419;28;20018;-75
2023/06/17 18:44:57;;;;;;;20.95;12.55;;;;;;;;;;10370834;28;20247;-72
2023/06/17 18:49:57;;;;;;;25.70;14.18;;;;;;;;;;10349674;28;20017;-73
2023/06/17 18:54:58;;;;;;;23.93;13.90;;;;;;;;;;10369787;28;20065;-73
2023/06/17 18:59:58;;;;;;;28.92;15.43;;;;;;;;;;10369037;28;20340;-72
2023/06/17 19:05:04;;;;;;;24.08;13.93;;;;;;;;;;10369119;28;20092;-72
2023/06/17 19:10:06;;;;;;;26.88;14.85;;;;;;;;;;10366453;28;20340;-73
2023/06/17 19:15:06;;;;;;;24.27;15.15;;;;;;;;;;10367781;28;20060;-73
2023/06/17 19:20:07;;;;;;;26.73;14.38;;;;;;;;;;10368998;28;20030;-72
2023/06/17 19:25:08;;;;;;;21.33;13.50;;;;;;;;;;10366572;28;20048;-72
2023/06/17 19:30:08;;;;;;;20.33;13.55;;;;;;;;;;10368053;28;20343;-73
2023/06/17 19:35:09;;;;;;;22.33;13.57;;;;;;;;;;10367443;28;20045;-73
2023/06/17 19:40:09;;;;;;;23.58;12.95;;;;;;;;;;10367147;28;20264;-73
2023/06/17 19:45:10;;;;;;;23.15;13.25;;;;;;;;;;10367526;28;20057;-72
2023/06/17 19:50:11;;;;;;;22.02;13.70;;;;;;;;;;10345723;28;20034;-72
2023/06/17 19:55:11;;;;;;;23.25;13.38;;;;;;;;;;10365574;28;20025;-74
2023/06/17 20:00:12;;;;;;;26.63;14.55;;;;;;;;;;10367064;28;20303;-71
2023/06/17 20:05:13;;;;;;;21.85;12.57;;;;;;;;;;10367962;28;20068;-72
2023/06/17 20:10:13;;;;;;;28.03;14.73;;;;;;;;;;10365846;28;20028;-72
2023/06/17 20:15:13;;;;;;;28.27;13.52;;;;;;;;;;10366053;28;20048;-72
2023/06/17 20:20:14;;;;;;;28.40;15.30;;;;;;;;;;10366598;28;20261;-72
2023/06/17 20:25:14;;;;;;;24.58;15.05;;;;;;;;;;10367237;28;20560;-72
2023/06/17 20:30:15;;;;;;;34.08;15.30;;;;;;;;;;10366311;28;20084;-74
2023/06/17 20:35:15;;;;;;;20.98;14.20;;;;;;;;;;10367492;28;20092;-73
2023/06/17 20:40:16;;;;;;;23.77;14.13;;;;;;;;;;10372669;28;20030;-72
2023/06/17 20:45:17;;;;;;;24.52;14.57;;;;;;;;;;10370926;28;20021;-73
2023/06/17 20:50:17;;;;;;;23.35;14.75;;;;;;;;;;10373869;28;20251;-73
2023/06/17 20:55:18;;;;;;;25.45;14.98;;;;;;;;;;10374415;28;20026;-73
2023/06/17 21:00:18;;;;;;;19.58;13.40;;;;;;;;;;10373952;28;20096;-72
2023/06/17 21:05:18;;;;;;;23.25;13.32;;;;;;;;;;10377462;28;20035;-72
2023/06/17 21:10:19;;;;;;;26.03;14.37;;;;;;;;;;10373901;28;20022;-71
2023/06/17 21:15:19;;;;;;;24.10;14.70;;;;;;;;;;10376391;28;20589;-71
2023/06/17 21:20:19;;;;;;;26.05;15.60;;;;;;;;;;10377300;28;20026;-71
2023/06/17 21:25:20;;;;;;;24.43;15.13;;;;;;;;;;10376208;28;20037;-71
2023/06/17 21:30:20;;;;;;;27.93;15.30;;;;;;;;;;10376128;28;20339;-71
2023/06/17 21:35:20;;;;;;;26.02;16.20;;;;;;;;;;10375868;28;20049;-72
2023/06/17 21:40:20;;;;;;;28.10;16.38;;;;;;;;;;10377366;28;20033;-71
2023/06/17 21:45:21;;;;;;;27.02;17.27;;;;;;;;;;10378072;28;20248;-71
2023/06/17 21:50:21;;;;;;;27.58;15.55;;;;;;;;;;10377671;28;20097;-71
2023/06/17 21:55:21;;;;;;;31.02;17.77;;;;;;;;;;10378003;28;20018;-71
2023/06/17 22:00:22;;;;;;;32.60;18.73;;;;;;;;;;10376295;28;20331;-71
2023/06/17 22:05:22;;;;;;;33.67;19.23;;;;;;;;;;10370141;28;20096;-71
2023/06/17 22:10:22;;;;;;;34.55;19.38;;;;;;;;;;10374629;28;20088;-72
2023/06/17 22:15:23;;;;;;;32.22;20.52;;;;;;;;;;10375170;28;20357;-72
2023/06/17 22:20:23;;;;;;;33.08;21.38;;;;;;;;;;10374993;28;20040;-72
2023/06/17 22:25:23;;;;;;;35.10;20.85;;;;;;;;;;10357178;28;20028;-72
2023/06/17 22:30:24;;;;;;;39.10;21.77;;;;;;;;;;10376369;28;20324;-72
2023/06/17 22:35:24;;;;;;;46.20;24.13;;;;;;;;;;10373284;28;20109;-72
2023/06/17 22:40:24;;;;;;;40.45;23.38;;;;;;;;;;10354109;28;20033;-71
2023/06/17 22:45:24;;;;;;;41.92;24.85;;;;;;;;;;10376284;28;20188;-72
2023/06/17 22:50:25;;;;;;;37.88;23.05;;;;;;;;;;10375624;28;20014;-72
2023/06/17 22:55:26;;;;;;;45.63;24.60;;;;;;;;;;10375614;28;20359;-72
2023/06/17 23:00:26;;;;;;;42.97;25.27;;;;;;;;;;10371530;28;20037;-72
2023/06/17 23:05:26;;;;;;;44.05;25.52;;;;;;;;;;10349856;28;20375;-72
2023/06/17 23:10:26;;;;;;;41.58;24.67;;;;;;;;;;10375319;28;20117;-72
2023/06/17 23:15:27;;;;;;;52.13;26.73;;;;;;;;;;10375053;28;20090;-72
2023/06/17 23:20:27;;;;;;;46.70;27.27;;;;;;;;;;10374811;28;20052;-71
2023/06/17 23:25:27;;;;;;;46.65;26.70;;;;;;;;;;10375059;28;20022;-71
2023/06/17 23:30:28;;;;;;;48.67;27.55;;;;;;;;;;10370611;28;20054;-72
2023/06/17 23:35:28;;;;;;;53.28;27.83;;;;;;;;;;10373940;28;20366;-71
2023/06/17 23:40:29;;;;;;;49.42;27.73;;;;;;;;;;10374643;28;20026;-71
2023/06/17 23:45:29;;;;;;;48.00;26.85;;;;;;;;;;10356907;28;20018;-71
2023/06/17 23:50:29;;;;;;;49.35;27.45;;;;;;;;;;10374778;28;20030;-71
2023/06/17 23:55:29;;;;;;;48.58;27.90;;;;;;;;;;10374320;28;20028;-71
